Glen Echo, Maryland
Current Conditions -  °F | °C
As of 5:52 PM on Thursday 27 Nov 2014 (Local Time) from KDCA Reporting Station
Broken Clouds Broken Clouds  
Wind Chill: 37°   Ceiling: 7000
Heat Index: 42°   Visibility: 10mi
Dew Point: 28°   Wind: 8mph
Humidity: 58%   Direction: 290°WNW
Pressure: 30.12"   Gusts: NA
Location:  38.97°N, 77.14°W
Report Text: KDCA 272252Z 29007KT 10SM FEW050 BKN070 06/M02 A3012 RMK AO2 SLP198 T00561022
Loading
Personal Weather Stations






























Interactive Weather Map New forecast layout! Learn more

10-Day Weather Forecast

Advertisements
Track Severe Weather on mobile